Time;durP1;ratioP1;P1;durP2;ratioP2;P2;SDS_P1;SDS_P2;PMS_P1;PMS_P2;Temp;Humidity;BMP_temperature;BMP_pressure;BME280_temperature;BME280_humidity;BME280_pressure;Samples;Min_cycle;Max_cycle;Signal;HPM_P1;HPM_P2
2023/05/03 00:00:07;;;;;;;10.35;4.22;;;9.10;99.90;;;;;;5098062;28;20046;-74
2023/05/03 00:02:37;;;;;;;8.05;4.72;;;9.00;99.90;;;;;;5098100;28;20104;-74
2023/05/03 00:05:03;;;;;;;9.50;4.75;;;8.90;99.90;;;;;;5098395;28;20162;-74
2023/05/03 00:07:29;;;;;;;12.32;4.70;;;9.00;99.90;;;;;;5098278;28;20043;-74
2023/05/03 00:09:55;;;;;;;14.38;5.20;;;8.90;99.90;;;;;;5098678;28;20028;-73
2023/05/03 00:12:20;;;;;;;19.05;5.15;;;8.80;99.90;;;;;;5096958;28;20020;-73
2023/05/03 00:14:46;;;;;;;7.72;4.25;;;8.80;99.90;;;;;;5097807;28;20024;-74
2023/05/03 00:17:12;;;;;;;13.23;4.53;;;8.80;99.90;;;;;;5098343;28;20024;-74
2023/05/03 00:19:38;;;;;;;15.55;4.22;;;8.80;99.90;;;;;;5097624;28;20024;-74
2023/05/03 00:22:04;;;;;;;10.00;4.55;;;8.90;99.90;;;;;;5097521;28;20017;-74
2023/05/03 00:24:29;;;;;;;17.80;4.78;;;8.90;99.90;;;;;;5097704;28;20030;-74
2023/05/03 00:26:55;;;;;;;11.55;4.85;;;8.90;99.90;;;;;;5098380;28;20024;-74
2023/05/03 00:29:21;;;;;;;11.07;4.22;;;8.90;99.90;;;;;;5097668;28;20028;-74
2023/05/03 00:31:47;;;;;;;11.80;4.68;;;8.90;99.90;;;;;;5097294;28;20028;-74
2023/05/03 00:34:12;;;;;;;11.93;4.10;;;8.90;99.90;;;;;;5098393;28;20024;-74
2023/05/03 00:36:38;;;;;;;9.57;4.20;;;8.80;99.90;;;;;;5098264;28;20106;-74
2023/05/03 00:39:04;;;;;;;13.30;4.82;;;8.70;99.90;;;;;;5097260;28;20027;-74
2023/05/03 00:41:29;;;;;;;10.05;4.50;;;8.80;99.90;;;;;;5097099;28;20069;-74
2023/05/03 00:43:55;;;;;;;11.48;4.75;;;8.90;99.90;;;;;;5098195;28;20103;-74
2023/05/03 00:46:20;;;;;;;11.68;4.88;;;8.90;99.90;;;;;;5097305;28;20027;-74
2023/05/03 00:48:48;;;;;;;12.15;4.53;;;8.80;99.90;;;;;;5097210;28;20032;-73
2023/05/03 00:51:14;;;;;;;11.70;4.80;;;8.70;99.90;;;;;;5097781;28;20115;-73
2023/05/03 00:53:41;;;;;;;10.15;4.35;;;8.60;99.90;;;;;;5098939;28;20028;-73
2023/05/03 00:56:08;;;;;;;13.85;5.05;;;8.60;99.90;;;;;;5097727;28;20089;-73
2023/05/03 00:58:35;;;;;;;11.43;4.63;;;8.60;99.90;;;;;;5096961;28;20024;-73
2023/05/03 01:01:02;;;;;;;14.57;5.45;;;8.60;99.90;;;;;;5096791;28;20048;-73
2023/05/03 01:03:28;;;;;;;16.80;4.60;;;8.60;99.90;;;;;;5097870;28;20020;-73
2023/05/03 01:06:02;;;;;;;11.48;4.10;;;8.60;99.90;;;;;;5097625;28;20092;-73
2023/05/03 01:08:46;;;;;;;12.18;4.32;;;8.60;99.90;;;;;;5097759;28;20057;-73
2023/05/03 01:11:21;;;;;;;8.90;4.55;;;8.60;99.90;;;;;;5097819;28;20050;-73
2023/05/03 01:14:27;;;;;;;10.20;4.07;;;8.30;99.90;;;;;;5096903;28;20032;-74
2023/05/03 01:17:00;;;;;;;8.18;4.45;;;8.30;99.90;;;;;;5097785;28;20024;-73
2023/05/03 01:19:36;;;;;;;11.98;5.25;;;8.30;99.90;;;;;;5096580;28;20054;-73
2023/05/03 01:22:16;;;;;;;10.63;4.10;;;8.20;99.90;;;;;;5097439;28;20094;-73
2023/05/03 01:24:47;;;;;;;14.40;4.97;;;8.10;99.90;;;;;;5096428;28;20024;-73
2023/05/03 01:27:13;;;;;;;9.87;4.07;;;7.90;99.90;;;;;;5097586;28;20022;-73
2023/05/03 01:29:38;;;;;;;12.77;4.88;;;7.90;99.90;;;;;;5096685;28;20023;-73
2023/05/03 01:32:11;;;;;;;14.88;4.75;;;8.00;99.90;;;;;;5096928;28;20115;-74
2023/05/03 01:34:50;;;;;;;10.45;4.72;;;8.00;99.90;;;;;;5096524;28;20105;-73
2023/05/03 01:37:17;;;;;;;9.13;4.57;;;8.10;99.90;;;;;;5097405;28;20024;-73
2023/05/03 01:40:15;;;;;;;10.88;4.60;;;8.10;99.90;;;;;;5096515;28;20020;-73
2023/05/03 01:42:41;;;;;;;12.10;4.57;;;8.10;99.90;;;;;;5097215;28;20024;-73
2023/05/03 01:45:07;;;;;;;8.00;4.57;;;8.20;99.90;;;;;;5097275;28;20032;-74
2023/05/03 01:47:33;;;;;;;10.02;4.00;;;8.20;99.90;;;;;;5097432;28;20020;-73
2023/05/03 01:49:58;;;;;;;10.48;4.28;;;8.20;99.90;;;;;;5097209;28;20095;-73
2023/05/03 01:52:24;;;;;;;13.88;5.38;;;8.10;99.90;;;;;;5098011;28;20050;-74
2023/05/03 01:54:50;;;;;;;9.40;4.50;;;8.00;99.90;;;;;;5098005;28;20028;-73
2023/05/03 01:57:15;;;;;;;11.77;5.18;;;7.90;99.90;;;;;;5096565;28;20054;-74
2023/05/03 01:59:41;;;;;;;10.27;4.72;;;7.90;99.90;;;;;;5096149;28;20116;-73
2023/05/03 02:02:06;;;;;;;16.23;5.00;;;7.90;99.90;;;;;;5096183;28;20024;-73
2023/05/03 02:04:32;;;;;;;13.70;4.63;;;7.80;99.90;;;;;;5096170;28;20043;-73
2023/05/03 02:06:57;;;;;;;14.00;5.85;;;7.80;99.90;;;;;;5096113;28;20028;-73
2023/05/03 02:09:23;;;;;;;10.48;4.85;;;7.70;99.90;;;;;;5097025;28;20036;-74
2023/05/03 02:11:49;;;;;;;15.20;5.00;;;7.60;99.90;;;;;;5095914;28;20024;-74
2023/05/03 02:14:14;;;;;;;19.13;5.03;;;7.60;99.90;;;;;;5096167;28;20026;-74
2023/05/03 02:16:40;;;;;;;14.80;4.65;;;7.80;99.90;;;;;;5096070;28;20028;-74
2023/05/03 02:19:06;;;;;;;9.40;4.50;;;7.80;99.90;;;;;;5095934;28;20020;-74
2023/05/03 02:21:33;;;;;;;10.50;4.57;;;7.70;99.90;;;;;;5096393;28;20055;-74
2023/05/03 02:23:59;;;;;;;10.70;4.65;;;7.70;99.90;;;;;;5096034;28;20020;-74
2023/05/03 02:26:25;;;;;;;13.73;4.63;;;7.60;99.90;;;;;;5095984;28;20024;-74
2023/05/03 02:28:50;;;;;;;10.52;5.10;;;7.70;99.90;;;;;;5096730;28;20081;-74
2023/05/03 02:31:16;;;;;;;10.65;5.35;;;7.60;99.90;;;;;;5096066;28;20020;-74
2023/05/03 02:33:41;;;;;;;9.15;4.15;;;7.50;99.90;;;;;;5096323;28;20070;-74
2023/05/03 02:36:07;;;;;;;15.65;4.80;;;7.50;99.90;;;;;;5097616;28;20042;-74
2023/05/03 02:38:33;;;;;;;10.05;4.45;;;7.40;99.90;;;;;;5099679;28;20024;-73
2023/05/03 02:40:58;;;;;;;9.50;4.72;;;7.40;99.90;;;;;;5100059;28;20028;-74
2023/05/03 02:43:24;;;;;;;19.10;5.82;;;7.30;99.90;;;;;;5100315;28;20024;-74
2023/05/03 02:45:50;;;;;;;12.63;5.57;;;7.30;99.90;;;;;;5099802;28;20016;-74
2023/05/03 02:48:15;;;;;;;14.27;5.82;;;7.20;99.90;;;;;;5099858;28;20027;-74
2023/05/03 02:50:41;;;;;;;9.50;5.45;;;7.20;99.90;;;;;;5099706;28;20023;-74
2023/05/03 02:53:07;;;;;;;13.63;5.72;;;7.00;99.90;;;;;;5100156;28;20035;-74
2023/05/03 02:55:33;;;;;;;14.32;6.00;;;7.10;99.90;;;;;;5099543;28;20028;-74
2023/05/03 02:57:58;;;;;;;13.27;6.18;;;7.10;99.90;;;;;;5099849;28;20059;-74
2023/05/03 03:00:24;;;;;;;11.70;5.20;;;7.00;99.90;;;;;;5100058;28;20030;-74
2023/05/03 03:02:49;;;;;;;10.20;5.13;;;6.90;99.90;;;;;;5100131;28;20024;-74
2023/05/03 03:05:15;;;;;;;11.05;5.15;;;6.90;99.90;;;;;;5099257;28;20024;-74
2023/05/03 03:07:41;;;;;;;15.50;5.20;;;7.00;99.90;;;;;;5099108;28;20063;-73
2023/05/03 03:10:07;;;;;;;12.20;5.10;;;7.10;99.90;;;;;;5099100;28;20024;-74
2023/05/03 03:12:35;;;;;;;16.33;6.47;;;7.10;99.90;;;;;;5099805;28;20078;-74
2023/05/03 03:15:00;;;;;;;13.02;6.00;;;7.20;99.90;;;;;;5099300;28;20035;-74
2023/05/03 03:17:26;;;;;;;8.63;5.18;;;7.20;99.90;;;;;;5099915;28;20036;-74
2023/05/03 03:19:51;;;;;;;13.95;5.25;;;7.10;99.90;;;;;;5099007;28;20055;-74
2023/05/03 03:22:17;;;;;;;18.10;5.40;;;7.20;99.90;;;;;;5098752;28;20016;-74
2023/05/03 03:24:43;;;;;;;11.13;6.00;;;7.10;99.90;;;;;;5098845;28;20043;-74
2023/05/03 03:27:09;;;;;;;11.27;4.63;;;7.10;99.90;;;;;;5098729;28;20016;-74
2023/05/03 03:29:34;;;;;;;9.65;4.65;;;7.10;99.90;;;;;;5099823;28;20032;-74
2023/05/03 03:32:00;;;;;;;11.85;4.78;;;7.20;99.90;;;;;;5098926;28;20047;-74
2023/05/03 03:34:26;;;;;;;10.48;4.32;;;7.10;99.90;;;;;;5099439;28;20034;-74
2023/05/03 03:36:51;;;;;;;17.48;5.88;;;7.10;99.90;;;;;;5098645;28;20060;-74
2023/05/03 03:39:17;;;;;;;12.20;5.88;;;7.10;99.90;;;;;;5098825;28;20028;-74
2023/05/03 03:41:43;;;;;;;12.40;4.97;;;7.10;99.90;;;;;;5098391;28;20035;-74
2023/05/03 03:44:08;;;;;;;11.70;4.53;;;7.10;99.90;;;;;;5099456;28;20034;-74
2023/05/03 03:46:34;;;;;;;8.95;4.90;;;7.00;99.90;;;;;;5097649;28;20027;-74
2023/05/03 03:48:59;;;;;;;11.98;4.50;;;7.00;99.90;;;;;;5098045;28;20119;-74
2023/05/03 03:51:25;;;;;;;15.18;5.78;;;6.90;99.90;;;;;;5098335;28;20038;-74
2023/05/03 03:53:51;;;;;;;10.93;4.53;;;6.80;99.90;;;;;;5098343;28;20053;-74
2023/05/03 03:56:17;;;;;;;11.90;4.93;;;6.90;99.90;;;;;;5098282;28;20110;-74
2023/05/03 03:58:42;;;;;;;9.43;4.93;;;6.90;99.90;;;;;;5099251;28;20024;-75
2023/05/03 04:01:08;;;;;;;15.35;4.55;;;7.00;99.90;;;;;;5101344;28;20103;-74
2023/05/03 04:03:33;;;;;;;11.50;5.68;;;7.00;99.90;;;;;;5098364;28;20027;-74
2023/05/03 04:05:59;;;;;;;10.35;4.57;;;7.00;99.90;;;;;;5098025;28;20027;-74
2023/05/03 04:08:24;;;;;;;12.15;4.13;;;7.00;99.90;;;;;;5097961;28;20020;-74
2023/05/03 04:10:50;;;;;;;12.57;4.78;;;7.00;99.90;;;;;;5097920;28;20028;-74
2023/05/03 04:13:16;;;;;;;11.40;4.50;;;7.00;99.90;;;;;;5097891;28;20030;-74
2023/05/03 04:15:41;;;;;;;11.57;5.28;;;7.00;99.90;;;;;;5098905;28;20104;-73
2023/05/03 04:18:07;;;;;;;14.00;5.18;;;6.90;99.90;;;;;;5098044;28;20028;-74
2023/05/03 04:20:35;;;;;;;11.48;4.90;;;6.90;99.90;;;;;;5097754;28;20043;-74
2023/05/03 04:23:01;;;;;;;12.43;5.25;;;6.90;99.90;;;;;;5097661;28;20016;-74
2023/05/03 04:25:26;;;;;;;10.93;5.10;;;6.90;99.90;;;;;;5097692;28;20031;-74
2023/05/03 04:27:52;;;;;;;12.88;5.30;;;6.70;99.90;;;;;;5098196;28;20023;-74
2023/05/03 04:30:18;;;;;;;9.82;4.57;;;6.70;99.90;;;;;;5097586;28;20099;-74
2023/05/03 04:32:44;;;;;;;12.30;5.18;;;6.80;99.90;;;;;;5098523;28;20021;-74
2023/05/03 04:35:11;;;;;;;15.60;5.75;;;6.80;99.90;;;;;;5098373;28;20026;-74
2023/05/03 04:37:37;;;;;;;12.43;5.22;;;6.80;99.90;;;;;;5098292;28;20101;-74
2023/05/03 04:40:06;;;;;;;8.50;4.70;;;6.80;99.90;;;;;;5097549;28;20028;-74
2023/05/03 04:42:32;;;;;;;11.63;5.28;;;6.80;99.90;;;;;;5097321;28;20020;-74
2023/05/03 04:44:57;;;;;;;10.35;5.40;;;6.90;99.90;;;;;;5097133;28;20066;-74
2023/05/03 04:47:24;;;;;;;12.48;5.40;;;6.90;99.90;;;;;;5097154;28;20025;-74
2023/05/03 04:49:50;;;;;;;12.43;4.57;;;6.80;99.90;;;;;;5097625;28;20024;-74
2023/05/03 04:52:16;;;;;;;10.35;4.18;;;6.90;99.90;;;;;;5097775;28;20051;-74
2023/05/03 04:54:41;;;;;;;7.80;4.57;;;6.90;99.90;;;;;;5097249;28;20035;-74
2023/05/03 04:57:10;;;;;;;12.63;5.28;;;6.90;99.90;;;;;;5097012;28;20028;-74
2023/05/03 04:59:35;;;;;;;10.60;5.10;;;7.00;99.90;;;;;;5096654;28;20032;-74
2023/05/03 05:02:01;;;;;;;9.52;4.78;;;7.00;99.90;;;;;;5096995;28;20091;-74
2023/05/03 05:04:26;;;;;;;11.65;4.40;;;7.10;99.90;;;;;;5096941;28;20024;-74
2023/05/03 05:06:53;;;;;;;15.57;4.57;;;7.00;99.90;;;;;;5097660;28;20026;-74
2023/05/03 05:09:23;;;;;;;14.05;5.15;;;7.00;99.90;;;;;;5097833;28;20042;-74
2023/05/03 05:11:49;;;;;;;10.23;5.60;;;7.20;99.90;;;;;;5096728;28;20024;-74
2023/05/03 05:14:14;;;;;;;10.70;5.25;;;7.20;99.90;;;;;;5097025;28;20027;-74
2023/05/03 05:16:40;;;;;;;11.70;4.60;;;7.20;99.90;;;;;;5097049;28;20054;-74
2023/05/03 05:19:06;;;;;;;8.88;4.72;;;7.30;99.90;;;;;;5096468;28;20035;-74
2023/05/03 05:21:32;;;;;;;16.17;5.63;;;7.30;99.90;;;;;;5097112;28;20073;-74
2023/05/03 05:23:58;;;;;;;9.25;4.13;;;7.30;99.90;;;;;;5096697;28;20020;-74
2023/05/03 05:26:24;;;;;;;14.40;4.88;;;7.40;99.90;;;;;;5097143;28;20028;-74
2023/05/03 05:28:50;;;;;;;11.13;4.60;;;7.30;99.90;;;;;;5097375;28;20020;-73
2023/05/03 05:31:16;;;;;;;9.48;4.75;;;7.40;99.90;;;;;;5097664;28;20050;-74
2023/05/03 05:33:41;;;;;;;14.40;4.95;;;7.50;99.90;;;;;;5096484;28;20020;-74
2023/05/03 05:36:07;;;;;;;10.52;4.85;;;7.50;99.90;;;;;;5097208;28;20036;-74
2023/05/03 05:38:33;;;;;;;11.88;4.65;;;7.60;99.90;;;;;;5096255;28;20024;-73
2023/05/03 05:40:58;;;;;;;11.65;4.97;;;7.60;99.90;;;;;;5096644;28;20150;-74
2023/05/03 05:43:24;;;;;;;10.88;4.55;;;7.70;99.90;;;;;;5096556;28;20122;-74
2023/05/03 05:45:49;;;;;;;10.93;4.72;;;7.50;99.90;;;;;;5097204;28;20012;-74
2023/05/03 05:48:15;;;;;;;10.85;5.07;;;7.60;99.90;;;;;;5096710;28;20039;-74
2023/05/03 05:50:41;;;;;;;10.02;5.15;;;7.70;99.90;;;;;;5096303;28;20077;-74
2023/05/03 05:53:07;;;;;;;11.30;5.35;;;7.80;99.90;;;;;;5096766;28;20040;-73
2023/05/03 05:55:33;;;;;;;12.85;4.95;;;7.80;99.90;;;;;;5097321;28;20031;-73
2023/05/03 05:57:59;;;;;;;18.98;5.13;;;7.90;99.90;;;;;;5096133;28;20032;-73
2023/05/03 06:00:24;;;;;;;11.38;5.00;;;7.90;99.90;;;;;;5096363;28;20070;-74
2023/05/03 06:02:50;;;;;;;9.75;4.95;;;7.90;99.90;;;;;;5096593;28;20016;-74
2023/05/03 06:05:16;;;;;;;13.15;5.40;;;8.00;99.90;;;;;;5097033;28;20024;-74
2023/05/03 06:07:41;;;;;;;18.25;5.55;;;8.00;99.90;;;;;;5097134;28;20024;-74
2023/05/03 06:10:07;;;;;;;11.52;5.30;;;8.00;99.90;;;;;;5096984;28;20101;-74
2023/05/03 06:12:33;;;;;;;9.55;4.63;;;8.00;99.90;;;;;;5101069;28;20024;-74
2023/05/03 06:14:58;;;;;;;12.18;4.70;;;8.10;99.90;;;;;;5100140;28;20028;-74
2023/05/03 06:17:25;;;;;;;9.55;5.05;;;8.20;99.90;;;;;;5100119;28;20034;-74
2023/05/03 06:19:51;;;;;;;15.07;4.82;;;8.30;99.90;;;;;;5100190;28;20116;-74
2023/05/03 06:22:16;;;;;;;11.30;4.72;;;8.40;99.90;;;;;;5099899;28;20051;-74
2023/05/03 06:24:42;;;;;;;13.45;5.15;;;8.40;99.90;;;;;;5100083;28;20110;-74
2023/05/03 06:27:07;;;;;;;8.88;4.95;;;8.50;99.90;;;;;;5099694;28;20016;-74
2023/05/03 06:29:33;;;;;;;15.70;5.47;;;8.60;99.90;;;;;;5099962;28;20051;-74
2023/05/03 06:31:59;;;;;;;14.05;5.25;;;8.60;99.90;;;;;;5099843;28;20032;-74
2023/05/03 06:34:25;;;;;;;16.90;5.80;;;8.70;99.90;;;;;;5100674;28;20026;-73
2023/05/03 06:36:50;;;;;;;12.95;5.03;;;8.80;99.90;;;;;;5100359;28;20029;-74
2023/05/03 06:39:16;;;;;;;10.80;5.72;;;8.80;99.90;;;;;;5100519;28;20031;-74
2023/05/03 06:41:43;;;;;;;12.18;5.25;;;8.90;99.90;;;;;;5099643;28;20055;-74
2023/05/03 06:44:08;;;;;;;13.80;5.15;;;9.00;99.90;;;;;;5100424;28;20170;-74
2023/05/03 06:46:34;;;;;;;10.05;4.90;;;9.10;99.90;;;;;;5099676;28;20062;-74
2023/05/03 06:49:00;;;;;;;10.45;4.82;;;9.20;99.90;;;;;;5100816;28;20028;-76
2023/05/03 06:51:28;;;;;;;10.10;4.97;;;9.30;99.90;;;;;;5099505;28;20028;-74
2023/05/03 06:53:59;;;;;;;9.20;4.68;;;9.30;99.90;;;;;;5099728;28;20023;-77
2023/05/03 06:56:24;;;;;;;8.52;4.72;;;9.40;99.90;;;;;;5100044;28;20036;-76
2023/05/03 06:58:50;;;;;;;9.82;4.68;;;9.40;99.90;;;;;;5099472;28;20020;-75
2023/05/03 07:01:17;;;;;;;11.27;5.00;;;9.40;99.90;;;;;;5099200;28;20046;-74
2023/05/03 07:03:43;;;;;;;8.32;4.57;;;9.50;99.90;;;;;;5100242;28;20023;-74
2023/05/03 07:06:09;;;;;;;11.07;4.95;;;9.70;99.90;;;;;;5100180;28;20020;-75
2023/05/03 07:08:34;;;;;;;8.07;4.32;;;9.80;99.90;;;;;;5099866;28;20024;-76
2023/05/03 07:11:00;;;;;;;15.68;3.58;;;9.90;99.90;;;;;;5099215;28;20111;-75
2023/05/03 07:13:25;;;;;;;6.97;3.30;;;10.00;99.90;;;;;;5099309;28;20031;-78
2023/05/03 07:15:51;;;;;;;11.75;3.05;;;10.10;99.90;;;;;;5099376;28;20027;-76
2023/05/03 07:18:16;;;;;;;7.78;4.10;;;10.20;99.90;;;;;;5098921;28;20031;-75
2023/05/03 07:20:42;;;;;;;11.23;4.20;;;10.30;99.90;;;;;;5098973;28;20024;-76
2023/05/03 07:23:08;;;;;;;16.10;4.70;;;10.30;99.90;;;;;;5099615;28;20027;-75
2023/05/03 07:25:33;;;;;;;10.07;4.25;;;10.30;99.90;;;;;;5099649;28;20020;-75
2023/05/03 07:27:59;;;;;;;8.43;3.20;;;10.40;99.90;;;;;;5099204;28;20020;-75
2023/05/03 07:30:24;;;;;;;11.23;5.18;;;10.40;99.90;;;;;;5099266;28;20020;-75
2023/05/03 07:32:50;;;;;;;15.40;5.40;;;10.40;99.90;;;;;;5098631;28;20146;-75
2023/05/03 07:35:16;;;;;;;5.82;3.42;;;10.50;99.90;;;;;;5098756;28;20017;-75
2023/05/03 07:37:42;;;;;;;3.75;2.72;;;10.50;99.90;;;;;;5098670;28;20092;-74
2023/05/03 07:40:11;;;;;;;11.05;3.92;;;10.70;99.90;;;;;;5098786;28;20096;-74
2023/05/03 07:42:37;;;;;;;7.15;2.85;;;10.80;99.90;;;;;;5098524;28;20070;-75
2023/05/03 07:45:03;;;;;;;4.43;2.75;;;10.90;99.90;;;;;;5098715;28;20047;-75
2023/05/03 07:47:28;;;;;;;9.25;3.05;;;11.00;99.90;;;;;;5098413;28;20024;-75
2023/05/03 07:49:54;;;;;;;7.75;2.83;;;11.00;99.90;;;;;;5099262;28;20111;-75
2023/05/03 07:52:19;;;;;;;5.95;3.00;;;11.10;99.90;;;;;;5098204;28;20058;-75
2023/05/03 07:54:45;;;;;;;3.20;2.80;;;11.10;99.90;;;;;;5098278;28;20024;-75
2023/05/03 07:57:15;;;;;;;5.00;3.00;;;11.10;99.90;;;;;;5098501;28;20019;-75
2023/05/03 07:59:42;;;;;;;6.55;2.67;;;11.10;99.90;;;;;;5098952;28;20028;-75
2023/05/03 08:02:08;;;;;;;7.75;3.08;;;11.30;99.90;;;;;;5098012;28;20047;-75
2023/05/03 08:04:34;;;;;;;4.80;2.90;;;11.40;99.90;;;;;;5098900;28;20028;-74
2023/05/03 08:07:01;;;;;;;7.07;3.30;;;11.70;99.90;;;;;;5098912;28;20048;-75
2023/05/03 08:09:27;;;;;;;6.32;2.85;;;11.80;99.90;;;;;;5097924;28;20030;-75
2023/05/03 08:11:55;;;;;;;5.18;2.70;;;11.80;99.90;;;;;;5098225;28;20031;-75
2023/05/03 08:14:20;;;;;;;6.07;2.75;;;11.80;99.90;;;;;;5099662;28;20028;-75
2023/05/03 08:16:46;;;;;;;5.20;2.42;;;11.90;99.90;;;;;;5098770;28;20020;-75
2023/05/03 08:19:11;;;;;;;7.82;2.90;;;12.00;99.90;;;;;;5099473;28;20024;-74
2023/05/03 08:21:37;;;;;;;7.32;2.83;;;12.00;99.90;;;;;;5098419;28;20067;-75
2023/05/03 08:24:05;;;;;;;7.20;3.13;;;12.10;99.90;;;;;;5098270;28;20025;-75
2023/05/03 08:26:31;;;;;;;6.65;3.00;;;12.20;99.90;;;;;;5097793;28;20021;-75
2023/05/03 08:28:57;;;;;;;11.75;2.83;;;12.10;99.90;;;;;;5097985;28;20028;-74
2023/05/03 08:31:23;;;;;;;13.13;3.70;;;12.20;99.90;;;;;;5098485;28;20032;-74
2023/05/03 08:33:49;;;;;;;5.72;3.20;;;12.40;99.90;;;;;;5098047;28;20024;-75
2023/05/03 08:36:14;;;;;;;8.38;3.13;;;12.30;99.90;;;;;;5097883;28;20020;-75
2023/05/03 08:38:40;;;;;;;66.90;23.10;;;12.40;99.90;;;;;;5099007;28;20031;-75
2023/05/03 08:41:28;;;;;;;11.70;3.42;;;12.40;99.90;;;;;;5097651;28;20065;-75
2023/05/03 08:43:54;;;;;;;19.08;10.13;;;12.70;99.90;;;;;;5097552;28;20099;-75
2023/05/03 08:46:21;;;;;;;6.07;2.80;;;12.60;99.90;;;;;;5098082;28;20044;-75
2023/05/03 08:48:51;;;;;;;7.60;3.60;;;12.80;99.90;;;;;;5097334;28;20092;-74
2023/05/03 08:51:18;;;;;;;7.05;3.00;;;12.80;99.90;;;;;;5097092;28;20027;-74
2023/05/03 08:53:45;;;;;;;6.10;2.67;;;12.50;99.90;;;;;;5097250;28;20119;-75
2023/05/03 08:56:14;;;;;;;6.50;2.63;;;12.70;99.90;;;;;;5097357;28;20030;-75
2023/05/03 08:58:39;;;;;;;7.03;2.70;;;12.70;99.90;;;;;;5097008;28;20055;-74
2023/05/03 09:01:07;;;;;;;4.53;2.88;;;13.00;99.90;;;;;;5096932;28;20016;-75
2023/05/03 09:03:33;;;;;;;4.90;2.88;;;13.20;99.90;;;;;;5098156;28;20020;-74
2023/05/03 09:06:02;;;;;;;8.45;3.15;;;13.40;99.90;;;;;;5098061;28;20016;-74
2023/05/03 09:08:29;;;;;;;4.85;2.95;;;13.50;99.90;;;;;;5097710;28;20080;-75
2023/05/03 09:10:55;;;;;;;5.10;2.63;;;13.20;99.90;;;;;;5097026;28;20031;-75
2023/05/03 09:13:28;;;;;;;6.35;3.00;;;13.20;99.90;;;;;;5097574;28;20031;-74
2023/05/03 09:15:54;;;;;;;4.78;2.72;;;13.60;99.90;;;;;;5096784;28;20104;-75
2023/05/03 09:18:21;;;;;;;7.80;2.72;;;13.70;99.90;;;;;;5096667;28;20027;-75
2023/05/03 09:20:51;;;;;;;7.05;3.42;;;13.60;99.90;;;;;;5097897;28;20016;-74
2023/05/03 09:23:19;;;;;;;3.05;2.55;;;13.50;99.90;;;;;;5096638;28;20020;-75
2023/05/03 09:25:49;;;;;;;7.55;3.13;;;13.90;99.90;;;;;;5097684;28;20112;-75
2023/05/03 09:28:16;;;;;;;8.32;2.55;;;13.80;99.90;;;;;;5096932;28;20085;-75
2023/05/03 09:30:42;;;;;;;7.25;4.50;;;13.90;99.90;;;;;;5096499;28;20020;-75
2023/05/03 09:33:10;;;;;;;7.53;3.45;;;13.80;99.90;;;;;;5097992;28;20027;-75
2023/05/03 09:35:54;;;;;;;6.57;3.33;;;13.90;99.90;;;;;;5096528;28;20027;-75
2023/05/03 09:38:31;;;;;;;5.25;2.60;;;14.00;99.90;;;;;;5096569;28;20043;-75
2023/05/03 09:40:57;;;;;;;6.82;3.10;;;14.10;99.90;;;;;;5096511;28;20024;-75
2023/05/03 09:43:23;;;;;;;6.03;2.97;;;14.40;99.90;;;;;;5096820;28;20088;-75
2023/05/03 09:45:48;;;;;;;4.25;2.58;;;14.40;99.90;;;;;;5096665;28;20027;-75
2023/05/03 09:48:15;;;;;;;7.85;3.50;;;14.50;99.90;;;;;;5096551;28;20020;-75
2023/05/03 09:50:42;;;;;;;4.47;2.70;;;14.60;99.90;;;;;;5097046;28;20024;-75
2023/05/03 09:53:07;;;;;;;6.28;2.35;;;14.50;99.90;;;;;;5096806;28;20028;-75
2023/05/03 09:55:38;;;;;;;5.20;2.42;;;14.60;99.90;;;;;;5096153;28;20016;-75
2023/05/03 09:58:05;;;;;;;11.48;4.80;;;14.60;99.90;;;;;;5096691;28;20023;-75
2023/05/03 10:00:36;;;;;;;6.28;2.25;;;14.60;99.90;;;;;;5096316;28;20031;-75
2023/05/03 10:03:11;;;;;;;4.00;2.17;;;14.80;99.90;;;;;;5097687;28;20016;-75
2023/05/03 10:05:45;;;;;;;3.72;2.35;;;14.90;99.90;;;;;;5096243;28;20028;-75
2023/05/03 10:08:17;;;;;;;9.10;3.00;;;15.30;99.90;;;;;;5097020;28;20073;-75
2023/05/03 10:10:45;;;;;;;5.10;2.45;;;15.10;99.90;;;;;;5096262;28;20024;-75
2023/05/03 10:13:12;;;;;;;4.97;2.63;;;15.40;99.90;;;;;;5097098;28;20020;-75
2023/05/03 10:15:41;;;;;;;5.05;2.15;;;15.50;99.90;;;;;;5096327;28;20027;-75
2023/05/03 10:18:12;;;;;;;4.72;2.42;;;15.40;99.90;;;;;;5096759;28;20031;-75
2023/05/03 10:20:51;;;;;;;4.20;2.50;;;15.80;99.90;;;;;;5097046;28;20027;-75
2023/05/03 10:23:17;;;;;;;7.10;2.42;;;15.80;99.90;;;;;;5097014;28;20020;-75
2023/05/03 10:26:06;;;;;;;4.40;2.83;;;16.00;99.40;;;;;;5096633;28;20032;-75
2023/05/03 10:28:35;;;;;;;5.70;2.40;;;15.90;98.50;;;;;;5093319;28;20035;-75
2023/05/03 10:31:01;;;;;;;3.25;2.33;;;15.50;98.70;;;;;;5096866;28;20028;-75
2023/05/03 10:33:33;;;;;;;11.55;3.40;;;15.80;99.90;;;;;;5096100;28;20051;-75
2023/05/03 10:36:09;;;;;;;5.50;2.60;;;15.90;98.80;;;;;;5096927;28;20027;-75
2023/05/03 10:38:36;;;;;;;4.53;2.28;;;16.30;97.90;;;;;;5095769;28;20028;-75
2023/05/03 10:41:02;;;;;;;4.68;2.22;;;16.40;99.30;;;;;;5095792;28;20032;-75
2023/05/03 10:43:31;;;;;;;7.85;2.65;;;16.70;96.90;;;;;;5096157;28;20051;-75
2023/05/03 10:46:04;;;;;;;4.32;2.38;;;17.00;96.00;;;;;;5096766;28;20052;-75
2023/05/03 10:48:34;;;;;;;3.78;2.55;;;17.10;96.30;;;;;;5095882;28;20035;-75
2023/05/03 10:51:27;;;;;;;6.85;2.60;;;17.50;97.90;;;;;;5095812;28;20024;-73
2023/05/03 10:53:53;;;;;;;5.75;2.90;;;17.80;98.40;;;;;;5096156;28;20028;-73
2023/05/03 10:56:18;;;;;;;4.55;2.90;;;18.10;96.40;;;;;;5096025;28;20024;-72
2023/05/03 10:58:46;;;;;;;5.15;2.92;;;17.90;96.50;;;;;;5099530;28;20027;-76
2023/05/03 11:01:14;;;;;;;7.07;2.80;;;17.90;95.20;;;;;;5099294;28;20098;-76
2023/05/03 11:04:10;;;;;;;3.38;2.40;;;17.70;93.40;;;;;;5100242;28;20024;-76
2023/05/03 11:06:39;;;;;;;4.80;2.83;;;17.70;93.90;;;;;;5100092;28;20024;-76
2023/05/03 11:09:07;;;;;;;5.55;2.40;;;17.90;94.80;;;;;;5100643;28;20024;-76
2023/05/03 11:11:35;;;;;;;13.40;2.92;;;18.20;93.80;;;;;;5099857;28;20092;-76
2023/05/03 11:14:02;;;;;;;7.20;2.92;;;18.20;94.00;;;;;;5099115;28;20026;-76
2023/05/03 11:16:28;;;;;;;10.57;3.08;;;18.40;94.90;;;;;;5099666;28;20020;-76
2023/05/03 11:18:54;;;;;;;5.13;2.75;;;18.80;96.10;;;;;;5099858;28;20031;-77
2023/05/03 11:21:20;;;;;;;3.72;2.20;;;19.00;93.10;;;;;;5099124;28;20051;-76
2023/05/03 11:23:46;;;;;;;6.30;2.67;;;18.80;94.50;;;;;;5100241;28;20103;-76
2023/05/03 11:26:12;;;;;;;8.30;2.70;;;18.90;93.20;;;;;;5100273;28;20012;-76
2023/05/03 11:28:41;;;;;;;6.85;3.33;;;19.00;90.80;;;;;;5099398;28;20024;-76
2023/05/03 11:31:08;;;;;;;9.80;5.65;;;19.10;91.20;;;;;;5099071;28;20028;-76
2023/05/03 11:33:37;;;;;;;5.53;2.80;;;18.90;90.20;;;;;;5098912;28;20024;-77
2023/05/03 11:36:08;;;;;;;5.05;2.53;;;18.90;90.40;;;;;;5099362;28;20027;-76
2023/05/03 11:38:35;;;;;;;5.18;2.58;;;19.40;91.10;;;;;;5098851;28;20025;-76
2023/05/03 11:41:15;;;;;;;5.60;3.08;;;19.60;88.70;;;;;;5099074;28;20052;-77
2023/05/03 11:43:45;;;;;;;5.88;2.83;;;19.90;88.50;;;;;;5099236;28;20047;-76
2023/05/03 11:46:16;;;;;;;5.90;2.50;;;19.80;91.40;;;;;;5099761;28;20025;-76
2023/05/03 11:48:43;;;;;;;5.85;2.42;;;20.30;90.60;;;;;;5099820;28;20024;-76
2023/05/03 11:51:10;;;;;;;8.65;3.55;;;20.50;85.20;;;;;;5099381;28;20028;-74
2023/05/03 11:53:40;;;;;;;5.05;2.60;;;20.80;84.40;;;;;;5098480;28;20052;-73
2023/05/03 11:56:08;;;;;;;11.20;3.50;;;20.30;82.00;;;;;;5098381;28;20016;-73
2023/05/03 11:58:33;;;;;;;6.35;2.90;;;20.30;80.80;;;;;;5099120;28;20060;-72
2023/05/03 12:00:59;;;;;;;5.38;2.55;;;20.10;82.80;;;;;;5098156;28;20030;-74
2023/05/03 12:03:34;;;;;;;3.88;2.28;;;20.30;81.40;;;;;;5098131;28;20051;-74
2023/05/03 12:06:00;;;;;;;3.17;2.58;;;20.60;84.00;;;;;;5098254;28;20020;-74
2023/05/03 12:08:32;;;;;;;3.67;2.65;;;20.90;83.60;;;;;;5096958;28;20065;-74
2023/05/03 12:11:00;;;;;;;3.72;2.22;;;21.00;84.40;;;;;;5098296;28;20027;-74
2023/05/03 12:13:26;;;;;;;4.35;1.90;;;21.30;81.40;;;;;;5098240;28;20050;-72
2023/05/03 12:15:58;;;;;;;4.85;1.85;;;21.10;78.30;;;;;;5098937;28;20145;-72
2023/05/03 12:18:23;;;;;;;;;;;21.30;77.60;;;;;;5099019;28;20020;-72
2023/05/03 12:20:56;;;;;;;4.78;2.15;;;21.50;75.50;;;;;;5097705;28;19904;-72
2023/05/03 12:23:23;;;;;;;3.80;2.10;;;21.40;76.50;;;;;;5098662;28;20024;-72
2023/05/03 12:25:50;;;;;;;3.80;2.13;;;21.20;74.50;;;;;;5098478;28;20051;-72
2023/05/03 12:28:16;;;;;;;5.10;2.17;;;21.20;73.50;;;;;;5097612;28;20051;-74
2023/05/03 12:30:41;;;;;;;7.57;2.22;;;21.30;72.30;;;;;;5097591;28;20031;-72
2023/05/03 12:33:07;;;;;;;8.52;2.00;;;21.20;72.90;;;;;;5097554;28;20028;-72
2023/05/03 12:35:34;;;;;;;4.78;1.95;;;21.40;74.60;;;;;;5097573;28;20020;-72
2023/05/03 12:38:02;;;;;;;5.47;2.00;;;21.50;74.00;;;;;;5098718;28;20020;-73
2023/05/03 12:40:28;;;;;;;6.43;2.00;;;21.40;71.80;;;;;;5097495;28;20027;-72
2023/05/03 12:42:55;;;;;;;3.97;1.70;;;21.20;72.90;;;;;;5097694;28;20020;-72
2023/05/03 12:45:20;;;;;;;7.90;1.90;;;21.20;75.50;;;;;;5097356;28;20020;-73
2023/05/03 12:47:46;;;;;;;7.03;1.85;;;22.10;74.90;;;;;;5098242;28;20028;-73